Shirley, IL (61772)

1:53 PM CDT on March 27, 2017 (GMT -0500)
Heartland Hills | | Change Station

Elev 778 ft 40.46 °N, 89.06 °W | Updated 24 seconds ago

Rain
Rain
52.7 °F
Feels Like 52.7 °F
N
8.3
Wind Variable Wind from East

Today
High -- | Low -- °F
--% Chance of Precip.
Yesterday
High -- | Low -- °F
Precip. -- in
Pressure 30.01 in
Visibility 10.0 miles
Clouds Mostly Cloudy 500 ft
Mostly Cloudy 3400 ft
Overcast 6500 ft
Dew Point 52 °F
Humidity 97%
Rainfall 0.11 in
Snow Depth Not available.
6:47 AM 7:15 PM
Waning Crescent, 0% visible
METAR KBMI 271756Z 05005KT 10SM -RA BKN005 BKN034 OVC065 11/11 A2992 RMK AO2 SLP160 P0001 60005 T01110106 10111 20083 58008
Pressure 30.01 in
Visibility 10.0 miles
Clouds Mostly Cloudy 500 ft
Mostly Cloudy 3400 ft
Overcast 6500 ft
Dew Point 52 °F
Humidity 97%
Rainfall 0.11 in
Snow Depth Not available.
6:47 AM 7:15 PM
Waning Crescent, 0% visible
METAR KBMI 271756Z 05005KT 10SM -RA BKN005 BKN034 OVC065 11/11 A2992 RMK AO2 SLP160 P0001 60005 T01110106 10111 20083 58008

Get Severe Weather Alerts

Thanks for signing up!

Be on the lookout for a verification email in your inbox.

You'll start receiving the daily forecast at 8 AM.

×

10-Day Weather Forecast

Almanac

Astronomy

Mar. 27, 2017 Rise Set
Actual Time
Civil Twilight
Nautical Twilight
Astronomical Twilight
Moon
Length of Visible Light
Length of Day
Tomorrow will be .
, % of the Moon is Illuminated

Today's Extremes

State Highs State Lows

Community

WunderPhotos

Upload Photos

1,962,540 photos uploaded!

WunderBlog® & News

Nearby

Air Quality

  Air Quality AQ Index Pollutant
Not available.

Snow Depth

Station Depth Elevation

Earthquake Activity

City Distance Mag. Time & Date
Minimum magnitude displayed is 2.5.

Earthquake Activity

City Distance Mag. Time & Date
Minimum magnitude displayed is 2.5.

Coastal Water Temperatures

Place Temperature

Stations

Nearby Weather Stations

Station Location Temp. Windchill Dew Point Humidity Wind Precip. Elev Updated Type
                   

Watches & Warnings

There are currently no watches in effect.